sensor_id;sensor_type;location;lat;lon;timestamp;P1;durP1;ratioP1;P2;durP2;ratioP2
2724;SDS011;1370;52.596;13.112;2023-10-09T00:02:07;4.93;;;4.53;;
2724;SDS011;1370;52.596;13.112;2023-10-09T00:04:33;4.43;;;4.00;;
2724;SDS011;1370;52.596;13.112;2023-10-09T00:07:01;5.30;;;4.90;;
2724;SDS011;1370;52.596;13.112;2023-10-09T00:09:28;8.37;;;5.13;;
2724;SDS011;1370;52.596;13.112;2023-10-09T00:11:56;5.23;;;4.40;;
2724;SDS011;1370;52.596;13.112;2023-10-09T00:14:25;3.87;;;3.57;;
2724;SDS011;1370;52.596;13.112;2023-10-09T00:16:52;5.90;;;3.50;;
2724;SDS011;1370;52.596;13.112;2023-10-09T00:19:42;5.13;;;3.77;;
2724;SDS011;1370;52.596;13.112;2023-10-09T00:22:08;3.90;;;3.50;;
2724;SDS011;1370;52.596;13.112;2023-10-09T00:24:43;3.83;;;3.43;;
2724;SDS011;1370;52.596;13.112;2023-10-09T00:27:11;4.60;;;4.17;;
2724;SDS011;1370;52.596;13.112;2023-10-09T00:29:37;4.33;;;3.93;;
2724;SDS011;1370;52.596;13.112;2023-10-09T00:32:09;7.37;;;4.10;;
2724;SDS011;1370;52.596;13.112;2023-10-09T00:34:52;4.33;;;3.70;;
2724;SDS011;1370;52.596;13.112;2023-10-09T00:37:18;4.67;;;4.33;;
2724;SDS011;1370;52.596;13.112;2023-10-09T00:39:51;4.83;;;3.33;;
2724;SDS011;1370;52.596;13.112;2023-10-09T00:42:23;4.20;;;3.60;;
2724;SDS011;1370;52.596;13.112;2023-10-09T00:44:57;4.40;;;4.00;;
2724;SDS011;1370;52.596;13.112;2023-10-09T00:47:28;3.63;;;2.83;;
2724;SDS011;1370;52.596;13.112;2023-10-09T00:49:59;5.93;;;3.80;;
2724;SDS011;1370;52.596;13.112;2023-10-09T00:52:47;4.20;;;3.90;;
2724;SDS011;1370;52.596;13.112;2023-10-09T00:55:26;5.30;;;2.90;;
2724;SDS011;1370;52.596;13.112;2023-10-09T00:58:13;4.00;;;3.60;;
2724;SDS011;1370;52.596;13.112;2023-10-09T01:00:40;6.33;;;2.97;;
2724;SDS011;1370;52.596;13.112;2023-10-09T01:03:08;6.20;;;4.23;;
2724;SDS011;1370;52.596;13.112;2023-10-09T01:05:43;5.60;;;2.90;;
2724;SDS011;1370;52.596;13.112;2023-10-09T01:08:30;5.80;;;3.50;;
2724;SDS011;1370;52.596;13.112;2023-10-09T01:10:58;3.50;;;3.20;;
2724;SDS011;1370;52.596;13.112;2023-10-09T01:13:33;7.60;;;2.80;;
2724;SDS011;1370;52.596;13.112;2023-10-09T01:16:05;4.97;;;3.30;;
2724;SDS011;1370;52.596;13.112;2023-10-09T01:18:31;3.53;;;3.30;;
2724;SDS011;1370;52.596;13.112;2023-10-09T01:21:01;3.10;;;2.80;;
2724;SDS011;1370;52.596;13.112;2023-10-09T01:23:27;3.20;;;3.00;;
2724;SDS011;1370;52.596;13.112;2023-10-09T01:25:54;3.50;;;3.20;;
2724;SDS011;1370;52.596;13.112;2023-10-09T01:28:20;9.30;;;4.67;;
2724;SDS011;1370;52.596;13.112;2023-10-09T01:30:45;4.30;;;3.20;;
2724;SDS011;1370;52.596;13.112;2023-10-09T01:33:12;4.77;;;3.63;;
2724;SDS011;1370;52.596;13.112;2023-10-09T01:35:49;4.27;;;3.20;;
2724;SDS011;1370;52.596;13.112;2023-10-09T01:38:19;7.47;;;3.43;;
2724;SDS011;1370;52.596;13.112;2023-10-09T01:40:55;6.53;;;3.10;;
2724;SDS011;1370;52.596;13.112;2023-10-09T01:43:27;5.63;;;3.63;;
2724;SDS011;1370;52.596;13.112;2023-10-09T01:45:53;3.83;;;3.53;;
2724;SDS011;1370;52.596;13.112;2023-10-09T01:48:18;5.63;;;4.27;;
2724;SDS011;1370;52.596;13.112;2023-10-09T01:50:51;7.60;;;3.70;;
2724;SDS011;1370;52.596;13.112;2023-10-09T01:53:16;3.20;;;2.47;;
2724;SDS011;1370;52.596;13.112;2023-10-09T01:55:47;5.03;;;4.33;;
2724;SDS011;1370;52.596;13.112;2023-10-09T01:58:12;2.90;;;2.67;;
2724;SDS011;1370;52.596;13.112;2023-10-09T02:00:46;3.33;;;3.13;;
2724;SDS011;1370;52.596;13.112;2023-10-09T02:03:19;3.50;;;3.30;;
2724;SDS011;1370;52.596;13.112;2023-10-09T02:05:48;3.80;;;3.20;;
2724;SDS011;1370;52.596;13.112;2023-10-09T02:08:16;3.50;;;3.30;;
2724;SDS011;1370;52.596;13.112;2023-10-09T02:10:46;3.40;;;3.10;;
2724;SDS011;1370;52.596;13.112;2023-10-09T02:13:12;7.23;;;3.60;;
2724;SDS011;1370;52.596;13.112;2023-10-09T02:15:42;4.27;;;3.50;;
2724;SDS011;1370;52.596;13.112;2023-10-09T02:18:14;3.63;;;3.33;;
2724;SDS011;1370;52.596;13.112;2023-10-09T02:20:44;3.57;;;3.27;;
2724;SDS011;1370;52.596;13.112;2023-10-09T02:23:10;4.20;;;3.20;;
2724;SDS011;1370;52.596;13.112;2023-10-09T02:25:41;3.27;;;2.97;;
2724;SDS011;1370;52.596;13.112;2023-10-09T02:28:09;5.20;;;3.97;;
2724;SDS011;1370;52.596;13.112;2023-10-09T02:30:45;2.80;;;2.60;;
2724;SDS011;1370;52.596;13.112;2023-10-09T02:33:16;5.27;;;3.20;;
2724;SDS011;1370;52.596;13.112;2023-10-09T02:35:55;4.47;;;3.03;;
2724;SDS011;1370;52.596;13.112;2023-10-09T02:38:24;4.97;;;3.20;;
2724;SDS011;1370;52.596;13.112;2023-10-09T02:40:51;3.60;;;3.30;;
2724;SDS011;1370;52.596;13.112;2023-10-09T02:43:28;4.53;;;4.13;;
2724;SDS011;1370;52.596;13.112;2023-10-09T02:46:06;4.03;;;3.60;;
2724;SDS011;1370;52.596;13.112;2023-10-09T02:48:45;3.67;;;3.20;;
2724;SDS011;1370;52.596;13.112;2023-10-09T02:51:18;4.07;;;3.77;;
2724;SDS011;1370;52.596;13.112;2023-10-09T02:53:53;5.30;;;4.33;;
2724;SDS011;1370;52.596;13.112;2023-10-09T02:56:23;3.97;;;3.33;;
2724;SDS011;1370;52.596;13.112;2023-10-09T02:58:52;3.57;;;3.20;;
2724;SDS011;1370;52.596;13.112;2023-10-09T03:01:18;4.83;;;3.67;;
2724;SDS011;1370;52.596;13.112;2023-10-09T03:03:44;4.50;;;4.20;;
2724;SDS011;1370;52.596;13.112;2023-10-09T03:06:11;3.53;;;3.23;;
2724;SDS011;1370;52.596;13.112;2023-10-09T03:08:53;3.20;;;3.00;;
2724;SDS011;1370;52.596;13.112;2023-10-09T03:11:19;5.17;;;4.00;;
2724;SDS011;1370;52.596;13.112;2023-10-09T03:13:45;7.40;;;4.07;;
2724;SDS011;1370;52.596;13.112;2023-10-09T03:16:11;4.00;;;3.60;;
2724;SDS011;1370;52.596;13.112;2023-10-09T03:18:52;6.20;;;3.10;;
2724;SDS011;1370;52.596;13.112;2023-10-09T03:21:21;5.60;;;3.27;;
2724;SDS011;1370;52.596;13.112;2023-10-09T03:23:46;7.07;;;4.17;;
2724;SDS011;1370;52.596;13.112;2023-10-09T03:26:18;6.73;;;3.63;;
2724;SDS011;1370;52.596;13.112;2023-10-09T03:28:47;5.10;;;3.77;;
2724;SDS011;1370;52.596;13.112;2023-10-09T03:31:13;3.90;;;3.60;;
2724;SDS011;1370;52.596;13.112;2023-10-09T03:33:39;3.53;;;2.93;;
2724;SDS011;1370;52.596;13.112;2023-10-09T03:36:05;4.30;;;3.90;;
2724;SDS011;1370;52.596;13.112;2023-10-09T03:38:37;6.53;;;3.27;;
2724;SDS011;1370;52.596;13.112;2023-10-09T03:41:03;6.47;;;3.80;;
2724;SDS011;1370;52.596;13.112;2023-10-09T03:43:32;4.10;;;3.80;;
2724;SDS011;1370;52.596;13.112;2023-10-09T03:46:07;3.43;;;3.10;;
2724;SDS011;1370;52.596;13.112;2023-10-09T03:48:59;4.90;;;2.97;;
2724;SDS011;1370;52.596;13.112;2023-10-09T03:51:35;4.70;;;4.23;;
2724;SDS011;1370;52.596;13.112;2023-10-09T03:54:02;4.90;;;3.47;;
2724;SDS011;1370;52.596;13.112;2023-10-09T03:56:31;5.20;;;3.80;;
2724;SDS011;1370;52.596;13.112;2023-10-09T03:58:57;3.20;;;2.90;;
2724;SDS011;1370;52.596;13.112;2023-10-09T04:01:23;4.23;;;3.83;;
2724;SDS011;1370;52.596;13.112;2023-10-09T04:04:03;3.83;;;3.00;;
2724;SDS011;1370;52.596;13.112;2023-10-09T04:06:31;3.30;;;3.00;;
2724;SDS011;1370;52.596;13.112;2023-10-09T04:08:57;3.83;;;2.90;;
2724;SDS011;1370;52.596;13.112;2023-10-09T04:11:24;4.60;;;3.30;;
2724;SDS011;1370;52.596;13.112;2023-10-09T04:13:50;3.93;;;3.53;;
2724;SDS011;1370;52.596;13.112;2023-10-09T04:16:17;4.03;;;3.80;;
2724;SDS011;1370;52.596;13.112;2023-10-09T04:18:55;4.27;;;3.77;;
2724;SDS011;1370;52.596;13.112;2023-10-09T04:21:24;3.63;;;2.80;;
2724;SDS011;1370;52.596;13.112;2023-10-09T04:24:08;2.93;;;2.73;;
2724;SDS011;1370;52.596;13.112;2023-10-09T04:26:43;2.63;;;2.43;;
2724;SDS011;1370;52.596;13.112;2023-10-09T04:29:15;3.50;;;3.30;;
2724;SDS011;1370;52.596;13.112;2023-10-09T04:31:51;6.40;;;3.67;;
2724;SDS011;1370;52.596;13.112;2023-10-09T04:34:24;3.93;;;3.30;;
2724;SDS011;1370;52.596;13.112;2023-10-09T04:36:53;5.17;;;4.73;;
2724;SDS011;1370;52.596;13.112;2023-10-09T04:39:38;6.10;;;3.40;;
2724;SDS011;1370;52.596;13.112;2023-10-09T04:42:11;3.80;;;3.50;;
2724;SDS011;1370;52.596;13.112;2023-10-09T04:44:45;3.87;;;3.57;;
2724;SDS011;1370;52.596;13.112;2023-10-09T04:47:30;3.30;;;3.10;;
2724;SDS011;1370;52.596;13.112;2023-10-09T04:50:06;3.87;;;3.57;;
2724;SDS011;1370;52.596;13.112;2023-10-09T04:52:38;5.47;;;4.70;;
2724;SDS011;1370;52.596;13.112;2023-10-09T04:55:04;4.07;;;3.87;;
2724;SDS011;1370;52.596;13.112;2023-10-09T04:57:36;4.53;;;4.17;;
2724;SDS011;1370;52.596;13.112;2023-10-09T05:00:12;4.27;;;3.97;;
2724;SDS011;1370;52.596;13.112;2023-10-09T05:03:01;4.30;;;4.00;;
2724;SDS011;1370;52.596;13.112;2023-10-09T05:05:46;6.20;;;5.30;;
2724;SDS011;1370;52.596;13.112;2023-10-09T05:08:12;4.70;;;4.30;;
2724;SDS011;1370;52.596;13.112;2023-10-09T05:10:46;4.40;;;4.10;;
2724;SDS011;1370;52.596;13.112;2023-10-09T05:16:05;4.63;;;4.20;;
2724;SDS011;1370;52.596;13.112;2023-10-09T05:18:30;8.73;;;5.50;;
2724;SDS011;1370;52.596;13.112;2023-10-09T05:21:02;4.53;;;4.13;;
2724;SDS011;1370;52.596;13.112;2023-10-09T05:23:50;9.67;;;5.13;;
2724;SDS011;1370;52.596;13.112;2023-10-09T05:26:47;9.00;;;4.80;;
2724;SDS011;1370;52.596;13.112;2023-10-09T05:29:14;5.33;;;4.10;;
2724;SDS011;1370;52.596;13.112;2023-10-09T05:31:58;4.17;;;3.80;;
2724;SDS011;1370;52.596;13.112;2023-10-09T05:34:40;8.37;;;3.93;;
2724;SDS011;1370;52.596;13.112;2023-10-09T05:37:24;4.17;;;3.80;;
2724;SDS011;1370;52.596;13.112;2023-10-09T05:40:00;4.73;;;4.33;;
2724;SDS011;1370;52.596;13.112;2023-10-09T05:42:29;4.20;;;3.83;;
2724;SDS011;1370;52.596;13.112;2023-10-09T05:45:02;6.70;;;4.00;;
2724;SDS011;1370;52.596;13.112;2023-10-09T05:47:43;5.43;;;4.03;;
2724;SDS011;1370;52.596;13.112;2023-10-09T05:50:31;4.43;;;4.03;;
2724;SDS011;1370;52.596;13.112;2023-10-09T05:52:56;4.97;;;4.57;;
2724;SDS011;1370;52.596;13.112;2023-10-09T05:55:30;4.87;;;4.07;;
2724;SDS011;1370;52.596;13.112;2023-10-09T05:58:15;4.60;;;4.30;;
2724;SDS011;1370;52.596;13.112;2023-10-09T06:00:58;4.90;;;3.70;;
2724;SDS011;1370;52.596;13.112;2023-10-09T06:03:42;6.70;;;3.70;;
2724;SDS011;1370;52.596;13.112;2023-10-09T06:06:14;4.80;;;4.03;;
2724;SDS011;1370;52.596;13.112;2023-10-09T06:09:07;4.40;;;3.93;;
2724;SDS011;1370;52.596;13.112;2023-10-09T06:11:53;4.67;;;4.27;;
2724;SDS011;1370;52.596;13.112;2023-10-09T06:14:19;4.13;;;3.83;;
2724;SDS011;1370;52.596;13.112;2023-10-09T06:16:54;6.83;;;4.03;;
2724;SDS011;1370;52.596;13.112;2023-10-09T06:19:23;4.90;;;4.40;;
2724;SDS011;1370;52.596;13.112;2023-10-09T06:21:56;9.40;;;5.10;;
2724;SDS011;1370;52.596;13.112;2023-10-09T06:24:37;4.47;;;4.07;;
2724;SDS011;1370;52.596;13.112;2023-10-09T06:27:07;4.07;;;3.77;;
2724;SDS011;1370;52.596;13.112;2023-10-09T06:29:39;5.13;;;4.60;;
2724;SDS011;1370;52.596;13.112;2023-10-09T06:32:10;4.47;;;3.20;;
2724;SDS011;1370;52.596;13.112;2023-10-09T06:34:52;7.80;;;3.50;;
2724;SDS011;1370;52.596;13.112;2023-10-09T06:37:22;3.63;;;3.33;;
2724;SDS011;1370;52.596;13.112;2023-10-09T06:39:48;5.90;;;4.57;;
2724;SDS011;1370;52.596;13.112;2023-10-09T06:42:27;4.13;;;3.70;;
2724;SDS011;1370;52.596;13.112;2023-10-09T06:44:55;3.50;;;3.20;;
2724;SDS011;1370;52.596;13.112;2023-10-09T06:47:21;4.10;;;3.80;;
2724;SDS011;1370;52.596;13.112;2023-10-09T06:49:49;4.17;;;3.77;;
2724;SDS011;1370;52.596;13.112;2023-10-09T06:52:34;5.20;;;4.10;;
2724;SDS011;1370;52.596;13.112;2023-10-09T06:55:18;4.37;;;3.97;;
2724;SDS011;1370;52.596;13.112;2023-10-09T06:57:44;4.77;;;3.87;;
2724;SDS011;1370;52.596;13.112;2023-10-09T07:00:13;4.40;;;3.80;;
2724;SDS011;1370;52.596;13.112;2023-10-09T07:02:59;4.17;;;3.87;;
2724;SDS011;1370;52.596;13.112;2023-10-09T07:05:36;4.00;;;3.60;;
2724;SDS011;1370;52.596;13.112;2023-10-09T07:08:21;4.50;;;4.10;;
2724;SDS011;1370;52.596;13.112;2023-10-09T07:11:03;4.83;;;4.50;;
2724;SDS011;1370;52.596;13.112;2023-10-09T07:17:00;4.10;;;3.80;;
2724;SDS011;1370;52.596;13.112;2023-10-09T07:19:27;3.70;;;3.40;;
2724;SDS011;1370;52.596;13.112;2023-10-09T07:21:58;4.23;;;3.83;;
2724;SDS011;1370;52.596;13.112;2023-10-09T07:24:28;6.73;;;4.00;;
2724;SDS011;1370;52.596;13.112;2023-10-09T07:27:11;8.53;;;4.50;;
2724;SDS011;1370;52.596;13.112;2023-10-09T07:29:39;4.80;;;4.30;;
2724;SDS011;1370;52.596;13.112;2023-10-09T07:32:14;4.90;;;4.40;;
2724;SDS011;1370;52.596;13.112;2023-10-09T07:34:49;4.70;;;4.40;;
2724;SDS011;1370;52.596;13.112;2023-10-09T07:37:21;8.47;;;6.70;;
2724;SDS011;1370;52.596;13.112;2023-10-09T07:39:48;3.97;;;3.67;;
2724;SDS011;1370;52.596;13.112;2023-10-09T07:42:22;4.63;;;4.23;;
2724;SDS011;1370;52.596;13.112;2023-10-09T07:45:06;8.80;;;5.00;;
2724;SDS011;1370;52.596;13.112;2023-10-09T07:47:47;10.17;;;9.37;;
2724;SDS011;1370;52.596;13.112;2023-10-09T07:50:25;15.13;;;8.80;;
2724;SDS011;1370;52.596;13.112;2023-10-09T07:53:03;5.93;;;5.33;;
2724;SDS011;1370;52.596;13.112;2023-10-09T07:55:42;9.60;;;4.80;;
2724;SDS011;1370;52.596;13.112;2023-10-09T07:58:18;7.57;;;4.83;;
2724;SDS011;1370;52.596;13.112;2023-10-09T08:00:49;6.47;;;4.77;;
2724;SDS011;1370;52.596;13.112;2023-10-09T08:03:41;4.90;;;4.40;;
2724;SDS011;1370;52.596;13.112;2023-10-09T08:06:10;4.00;;;3.60;;
2724;SDS011;1370;52.596;13.112;2023-10-09T08:09:14;4.47;;;3.83;;
2724;SDS011;1370;52.596;13.112;2023-10-09T08:11:40;5.00;;;3.60;;
2724;SDS011;1370;52.596;13.112;2023-10-09T08:14:25;4.40;;;4.00;;
2724;SDS011;1370;52.596;13.112;2023-10-09T08:16:59;6.30;;;4.83;;
2724;SDS011;1370;52.596;13.112;2023-10-09T08:19:38;5.27;;;4.77;;
2724;SDS011;1370;52.596;13.112;2023-10-09T08:22:26;4.20;;;3.80;;
2724;SDS011;1370;52.596;13.112;2023-10-09T08:24:56;5.90;;;5.37;;
2724;SDS011;1370;52.596;13.112;2023-10-09T08:27:25;5.60;;;4.23;;
2724;SDS011;1370;52.596;13.112;2023-10-09T08:32:41;5.23;;;4.30;;
2724;SDS011;1370;52.596;13.112;2023-10-09T08:35:25;4.90;;;3.87;;
2724;SDS011;1370;52.596;13.112;2023-10-09T08:37:58;5.83;;;4.00;;
2724;SDS011;1370;52.596;13.112;2023-10-09T08:40:31;4.30;;;3.90;;
2724;SDS011;1370;52.596;13.112;2023-10-09T08:43:08;3.00;;;2.70;;
2724;SDS011;1370;52.596;13.112;2023-10-09T08:48:18;2.93;;;2.73;;
2724;SDS011;1370;52.596;13.112;2023-10-09T08:50:45;5.00;;;3.20;;
2724;SDS011;1370;52.596;13.112;2023-10-09T08:53:11;4.63;;;3.90;;
2724;SDS011;1370;52.596;13.112;2023-10-09T08:55:37;3.80;;;3.50;;
2724;SDS011;1370;52.596;13.112;2023-10-09T08:58:05;3.80;;;3.50;;
2724;SDS011;1370;52.596;13.112;2023-10-09T09:00:38;3.83;;;3.53;;
2724;SDS011;1370;52.596;13.112;2023-10-09T09:03:08;5.70;;;4.17;;
2724;SDS011;1370;52.596;13.112;2023-10-09T09:05:33;4.87;;;4.27;;
2724;SDS011;1370;52.596;13.112;2023-10-09T09:08:00;8.97;;;5.03;;
2724;SDS011;1370;52.596;13.112;2023-10-09T09:10:28;4.60;;;3.70;;
2724;SDS011;1370;52.596;13.112;2023-10-09T09:13:03;4.87;;;4.40;;
2724;SDS011;1370;52.596;13.112;2023-10-09T09:15:29;4.37;;;4.07;;
2724;SDS011;1370;52.596;13.112;2023-10-09T09:18:07;5.03;;;4.13;;
2724;SDS011;1370;52.596;13.112;2023-10-09T09:20:36;3.70;;;3.43;;
2724;SDS011;1370;52.596;13.112;2023-10-09T09:23:05;4.00;;;3.70;;
2724;SDS011;1370;52.596;13.112;2023-10-09T09:25:43;6.00;;;4.30;;
2724;SDS011;1370;52.596;13.112;2023-10-09T09:28:25;37.33;;;28.83;;
2724;SDS011;1370;52.596;13.112;2023-10-09T09:30:55;22.00;;;19.20;;
2724;SDS011;1370;52.596;13.112;2023-10-09T09:33:32;5.67;;;5.33;;
2724;SDS011;1370;52.596;13.112;2023-10-09T09:36:05;7.20;;;5.90;;
2724;SDS011;1370;52.596;13.112;2023-10-09T09:38:31;6.53;;;5.40;;
2724;SDS011;1370;52.596;13.112;2023-10-09T09:41:07;9.60;;;5.30;;
2724;SDS011;1370;52.596;13.112;2023-10-09T09:43:33;6.47;;;5.03;;
2724;SDS011;1370;52.596;13.112;2023-10-09T09:46:00;11.50;;;5.47;;
2724;SDS011;1370;52.596;13.112;2023-10-09T09:48:32;11.90;;;5.33;;
2724;SDS011;1370;52.596;13.112;2023-10-09T09:50:57;4.20;;;3.90;;
2724;SDS011;1370;52.596;13.112;2023-10-09T09:53:23;5.33;;;4.30;;
2724;SDS011;1370;52.596;13.112;2023-10-09T09:55:52;4.53;;;4.10;;
2724;SDS011;1370;52.596;13.112;2023-10-09T09:58:24;5.00;;;4.50;;
2724;SDS011;1370;52.596;13.112;2023-10-09T10:00:53;5.23;;;4.73;;
2724;SDS011;1370;52.596;13.112;2023-10-09T10:03:20;5.80;;;4.20;;
2724;SDS011;1370;52.596;13.112;2023-10-09T10:05:49;4.93;;;4.53;;
2724;SDS011;1370;52.596;13.112;2023-10-09T10:08:19;5.00;;;4.47;;
2724;SDS011;1370;52.596;13.112;2023-10-09T10:10:46;33.30;;;23.87;;
2724;SDS011;1370;52.596;13.112;2023-10-09T10:13:17;11.10;;;8.63;;
2724;SDS011;1370;52.596;13.112;2023-10-09T10:18:31;5.77;;;5.17;;
2724;SDS011;1370;52.596;13.112;2023-10-09T10:21:10;5.50;;;5.00;;
2724;SDS011;1370;52.596;13.112;2023-10-09T10:23:41;6.27;;;5.77;;
2724;SDS011;1370;52.596;13.112;2023-10-09T10:26:16;5.37;;;5.03;;
2724;SDS011;1370;52.596;13.112;2023-10-09T10:34:17;7.40;;;6.30;;
2724;SDS011;1370;52.596;13.112;2023-10-09T10:36:48;5.60;;;5.10;;
2724;SDS011;1370;52.596;13.112;2023-10-09T10:39:17;5.03;;;4.50;;
2724;SDS011;1370;52.596;13.112;2023-10-09T10:41:56;8.77;;;5.57;;
2724;SDS011;1370;52.596;13.112;2023-10-09T10:44:24;6.50;;;5.50;;
2724;SDS011;1370;52.596;13.112;2023-10-09T10:47:06;4.87;;;4.50;;
2724;SDS011;1370;52.596;13.112;2023-10-09T10:49:51;5.03;;;4.53;;
2724;SDS011;1370;52.596;13.112;2023-10-09T10:52:23;6.40;;;4.53;;
2724;SDS011;1370;52.596;13.112;2023-10-09T10:55:13;12.00;;;4.43;;
2724;SDS011;1370;52.596;13.112;2023-10-09T10:57:54;6.80;;;4.73;;
2724;SDS011;1370;52.596;13.112;2023-10-09T11:00:28;4.80;;;4.40;;
2724;SDS011;1370;52.596;13.112;2023-10-09T11:03:22;5.50;;;5.00;;
2724;SDS011;1370;52.596;13.112;2023-10-09T11:06:06;6.47;;;4.60;;
2724;SDS011;1370;52.596;13.112;2023-10-09T11:08:46;8.27;;;5.80;;
2724;SDS011;1370;52.596;13.112;2023-10-09T11:11:24;9.43;;;5.23;;
2724;SDS011;1370;52.596;13.112;2023-10-09T11:14:12;5.90;;;5.40;;
2724;SDS011;1370;52.596;13.112;2023-10-09T11:16:41;8.03;;;5.03;;
2724;SDS011;1370;52.596;13.112;2023-10-09T11:19:07;5.80;;;5.40;;
2724;SDS011;1370;52.596;13.112;2023-10-09T11:21:59;6.53;;;5.90;;
2724;SDS011;1370;52.596;13.112;2023-10-09T11:24:31;9.00;;;5.63;;
2724;SDS011;1370;52.596;13.112;2023-10-09T11:26:59;7.77;;;6.77;;
2724;SDS011;1370;52.596;13.112;2023-10-09T11:29:31;8.37;;;7.07;;
2724;SDS011;1370;52.596;13.112;2023-10-09T11:32:09;7.07;;;6.20;;
2724;SDS011;1370;52.596;13.112;2023-10-09T11:34:43;9.07;;;8.23;;
2724;SDS011;1370;52.596;13.112;2023-10-09T11:37:17;9.60;;;6.90;;
2724;SDS011;1370;52.596;13.112;2023-10-09T11:39:55;7.83;;;6.47;;
2724;SDS011;1370;52.596;13.112;2023-10-09T11:42:21;6.13;;;5.43;;
2724;SDS011;1370;52.596;13.112;2023-10-09T11:45:03;6.70;;;6.00;;
2724;SDS011;1370;52.596;13.112;2023-10-09T11:47:47;6.70;;;6.10;;
2724;SDS011;1370;52.596;13.112;2023-10-09T11:50:22;6.63;;;6.03;;
2724;SDS011;1370;52.596;13.112;2023-10-09T11:53:08;8.40;;;7.60;;
2724;SDS011;1370;52.596;13.112;2023-10-09T11:55:36;8.73;;;7.93;;
2724;SDS011;1370;52.596;13.112;2023-10-09T11:58:02;9.00;;;8.13;;
2724;SDS011;1370;52.596;13.112;2023-10-09T12:00:30;9.90;;;8.50;;
2724;SDS011;1370;52.596;13.112;2023-10-09T12:02:57;8.93;;;7.03;;
2724;SDS011;1370;52.596;13.112;2023-10-09T12:05:34;8.47;;;7.67;;
2724;SDS011;1370;52.596;13.112;2023-10-09T12:07:59;8.20;;;7.40;;
2724;SDS011;1370;52.596;13.112;2023-10-09T12:10:26;7.03;;;6.37;;
2724;SDS011;1370;52.596;13.112;2023-10-09T12:12:52;8.50;;;7.70;;
2724;SDS011;1370;52.596;13.112;2023-10-09T12:15:18;6.43;;;5.93;;
2724;SDS011;1370;52.596;13.112;2023-10-09T12:17:44;8.67;;;7.77;;
2724;SDS011;1370;52.596;13.112;2023-10-09T12:20:12;10.43;;;9.43;;
2724;SDS011;1370;52.596;13.112;2023-10-09T12:22:56;8.30;;;7.13;;
2724;SDS011;1370;52.596;13.112;2023-10-09T12:25:24;9.20;;;8.10;;
2724;SDS011;1370;52.596;13.112;2023-10-09T12:27:50;10.03;;;8.90;;
2724;SDS011;1370;52.596;13.112;2023-10-09T12:30:19;9.87;;;8.73;;
2724;SDS011;1370;52.596;13.112;2023-10-09T12:32:51;8.03;;;6.80;;
2724;SDS011;1370;52.596;13.112;2023-10-09T12:35:17;7.60;;;6.90;;
2724;SDS011;1370;52.596;13.112;2023-10-09T12:37:43;9.87;;;8.90;;
2724;SDS011;1370;52.596;13.112;2023-10-09T12:40:08;7.93;;;7.13;;
2724;SDS011;1370;52.596;13.112;2023-10-09T12:42:35;6.83;;;6.40;;
2724;SDS011;1370;52.596;13.112;2023-10-09T12:45:01;7.53;;;6.93;;
2724;SDS011;1370;52.596;13.112;2023-10-09T12:47:33;8.10;;;6.80;;
2724;SDS011;1370;52.596;13.112;2023-10-09T12:49:58;8.67;;;7.03;;
2724;SDS011;1370;52.596;13.112;2023-10-09T12:52:24;8.03;;;7.23;;
2724;SDS011;1370;52.596;13.112;2023-10-09T12:54:54;9.50;;;8.00;;
2724;SDS011;1370;52.596;13.112;2023-10-09T12:57:20;8.07;;;7.30;;
2724;SDS011;1370;52.596;13.112;2023-10-09T12:59:45;12.63;;;11.23;;
2724;SDS011;1370;52.596;13.112;2023-10-09T13:02:13;14.50;;;9.90;;
2724;SDS011;1370;52.596;13.112;2023-10-09T13:04:53;13.77;;;12.47;;
2724;SDS011;1370;52.596;13.112;2023-10-09T13:07:18;14.37;;;9.90;;
2724;SDS011;1370;52.596;13.112;2023-10-09T13:09:47;14.60;;;9.87;;
2724;SDS011;1370;52.596;13.112;2023-10-09T13:12:32;8.87;;;8.07;;
2724;SDS011;1370;52.596;13.112;2023-10-09T13:14:57;12.53;;;8.00;;
2724;SDS011;1370;52.596;13.112;2023-10-09T13:17:22;9.70;;;8.80;;
2724;SDS011;1370;52.596;13.112;2023-10-09T13:19:51;17.70;;;10.70;;
2724;SDS011;1370;52.596;13.112;2023-10-09T13:22:17;10.67;;;8.53;;
2724;SDS011;1370;52.596;13.112;2023-10-09T13:24:42;6.87;;;6.27;;
2724;SDS011;1370;52.596;13.112;2023-10-09T13:27:08;7.23;;;6.53;;
2724;SDS011;1370;52.596;13.112;2023-10-09T13:29:35;15.70;;;12.50;;
2724;SDS011;1370;52.596;13.112;2023-10-09T13:32:04;38.83;;;31.00;;
2724;SDS011;1370;52.596;13.112;2023-10-09T13:34:38;13.70;;;12.30;;
2724;SDS011;1370;52.596;13.112;2023-10-09T13:37:09;9.90;;;8.37;;
2724;SDS011;1370;52.596;13.112;2023-10-09T13:39:38;8.33;;;7.00;;
2724;SDS011;1370;52.596;13.112;2023-10-09T13:42:05;7.73;;;6.97;;
2724;SDS011;1370;52.596;13.112;2023-10-09T13:44:32;8.10;;;7.27;;
2724;SDS011;1370;52.596;13.112;2023-10-09T13:46:59;6.60;;;6.10;;
2724;SDS011;1370;52.596;13.112;2023-10-09T13:49:26;7.00;;;6.30;;
2724;SDS011;1370;52.596;13.112;2023-10-09T13:51:58;8.07;;;6.83;;
2724;SDS011;1370;52.596;13.112;2023-10-09T13:54:25;7.03;;;6.43;;
2724;SDS011;1370;52.596;13.112;2023-10-09T13:56:57;8.80;;;7.90;;
2724;SDS011;1370;52.596;13.112;2023-10-09T13:59:22;7.40;;;6.90;;
2724;SDS011;1370;52.596;13.112;2023-10-09T14:01:50;9.30;;;7.60;;
2724;SDS011;1370;52.596;13.112;2023-10-09T14:04:16;9.10;;;7.20;;
2724;SDS011;1370;52.596;13.112;2023-10-09T14:06:44;8.17;;;7.33;;
2724;SDS011;1370;52.596;13.112;2023-10-09T14:09:10;6.90;;;6.30;;
2724;SDS011;1370;52.596;13.112;2023-10-09T14:11:36;6.60;;;5.90;;
2724;SDS011;1370;52.596;13.112;2023-10-09T14:14:03;6.83;;;6.30;;
2724;SDS011;1370;52.596;13.112;2023-10-09T14:16:29;6.97;;;6.43;;
2724;SDS011;1370;52.596;13.112;2023-10-09T14:18:58;9.20;;;8.00;;
2724;SDS011;1370;52.596;13.112;2023-10-09T14:21:24;10.63;;;9.67;;
2724;SDS011;1370;52.596;13.112;2023-10-09T14:23:51;9.93;;;9.07;;
2724;SDS011;1370;52.596;13.112;2023-10-09T14:26:22;11.27;;;9.97;;
2724;SDS011;1370;52.596;13.112;2023-10-09T14:28:51;14.70;;;8.33;;
2724;SDS011;1370;52.596;13.112;2023-10-09T14:31:17;9.83;;;8.70;;
2724;SDS011;1370;52.596;13.112;2023-10-09T14:33:47;10.53;;;9.33;;
2724;SDS011;1370;52.596;13.112;2023-10-09T14:36:16;10.10;;;9.40;;
2724;SDS011;1370;52.596;13.112;2023-10-09T14:38:43;11.30;;;9.90;;
2724;SDS011;1370;52.596;13.112;2023-10-09T14:41:11;10.00;;;9.10;;
2724;SDS011;1370;52.596;13.112;2023-10-09T14:43:36;8.73;;;8.00;;
2724;SDS011;1370;52.596;13.112;2023-10-09T14:46:02;10.00;;;9.20;;
2724;SDS011;1370;52.596;13.112;2023-10-09T14:48:29;10.90;;;9.37;;
2724;SDS011;1370;52.596;13.112;2023-10-09T14:51:02;9.60;;;8.73;;
2724;SDS011;1370;52.596;13.112;2023-10-09T14:53:30;8.80;;;7.93;;
2724;SDS011;1370;52.596;13.112;2023-10-09T14:55:56;10.10;;;9.20;;
2724;SDS011;1370;52.596;13.112;2023-10-09T14:58:21;10.10;;;9.20;;
2724;SDS011;1370;52.596;13.112;2023-10-09T15:00:50;11.40;;;9.70;;
2724;SDS011;1370;52.596;13.112;2023-10-09T15:03:16;10.37;;;9.17;;
2724;SDS011;1370;52.596;13.112;2023-10-09T15:05:44;9.80;;;8.80;;
2724;SDS011;1370;52.596;13.112;2023-10-09T15:08:10;10.93;;;9.10;;
2724;SDS011;1370;52.596;13.112;2023-10-09T15:10:43;15.67;;;10.40;;
2724;SDS011;1370;52.596;13.112;2023-10-09T15:13:10;13.70;;;9.07;;
2724;SDS011;1370;52.596;13.112;2023-10-09T15:15:40;10.03;;;9.20;;
2724;SDS011;1370;52.596;13.112;2023-10-09T15:18:05;10.47;;;9.40;;
2724;SDS011;1370;52.596;13.112;2023-10-09T15:20:31;10.00;;;9.13;;
2724;SDS011;1370;52.596;13.112;2023-10-09T15:22:56;10.83;;;9.73;;
2724;SDS011;1370;52.596;13.112;2023-10-09T15:25:21;10.77;;;9.77;;
2724;SDS011;1370;52.596;13.112;2023-10-09T15:27:47;10.60;;;9.50;;
2724;SDS011;1370;52.596;13.112;2023-10-09T15:30:12;11.60;;;9.00;;
2724;SDS011;1370;52.596;13.112;2023-10-09T15:32:42;10.80;;;9.80;;
2724;SDS011;1370;52.596;13.112;2023-10-09T15:35:07;9.90;;;8.93;;
2724;SDS011;1370;52.596;13.112;2023-10-09T15:37:37;9.87;;;8.23;;
2724;SDS011;1370;52.596;13.112;2023-10-09T15:40:04;13.23;;;8.90;;
2724;SDS011;1370;52.596;13.112;2023-10-09T15:42:30;11.20;;;10.03;;
2724;SDS011;1370;52.596;13.112;2023-10-09T15:44:56;10.23;;;9.27;;
2724;SDS011;1370;52.596;13.112;2023-10-09T15:47:21;11.00;;;9.90;;
2724;SDS011;1370;52.596;13.112;2023-10-09T15:49:47;10.03;;;9.23;;